createdAt,value
2023-02-17T00:00:20.491Z,58.83
2023-02-17T00:03:09.469Z,60.83
2023-02-17T00:05:39.472Z,61.20
2023-02-17T00:08:06.708Z,68.33
2023-02-17T00:10:33.709Z,66.43
2023-02-17T00:13:00.985Z,59.63
2023-02-17T00:15:27.925Z,69.50
2023-02-17T00:17:55.124Z,70.07
2023-02-17T00:20:22.112Z,62.67
2023-02-17T00:22:49.360Z,63.43
2023-02-17T00:25:16.306Z,54.30
2023-02-17T00:27:43.549Z,60.40
2023-02-17T00:30:10.813Z,68.97
2023-02-17T00:32:38.089Z,68.60
2023-02-17T00:35:05.741Z,62.83
2023-02-17T00:37:35.746Z,64.83
2023-02-17T00:40:02.662Z,62.43
2023-02-17T00:42:29.980Z,61.63
2023-02-17T00:44:56.925Z,59.57
2023-02-17T00:47:24.171Z,67.17
2023-02-17T00:49:51.629Z,62.10
2023-02-17T00:52:18.840Z,59.17
2023-02-17T00:54:46.338Z,62.57
2023-02-17T00:57:13.600Z,62.37
2023-02-17T00:59:40.525Z,67.40
2023-02-17T01:02:08.180Z,78.80
2023-02-17T01:04:35.228Z,62.87
2023-02-17T01:07:02.476Z,57.80
2023-02-17T01:09:29.432Z,67.77
2023-02-17T01:11:56.676Z,60.70
2023-02-17T01:14:23.627Z,63.87
2023-02-17T01:16:50.873Z,65.37
2023-02-17T01:19:19.516Z,62.90
2023-02-17T01:21:46.831Z,64.97
2023-02-17T01:24:13.932Z,66.57
2023-02-17T01:26:41.232Z,61.77
2023-02-17T01:29:10.181Z,60.53
2023-02-17T01:31:37.748Z,66.80
2023-02-17T01:34:05.360Z,70.53
2023-02-17T01:36:33.214Z,60.00
2023-02-17T01:39:00.390Z,59.07
2023-02-17T01:41:28.709Z,75.43
2023-02-17T01:44:18.429Z,60.10
2023-02-17T01:46:48.505Z,61.80
2023-02-17T01:49:32.631Z,64.03
2023-02-17T01:52:13.131Z,61.80
2023-02-17T01:54:48.568Z,68.63
2023-02-17T01:57:19.563Z,67.17
2023-02-17T01:59:46.934Z,64.00
2023-02-17T02:02:15.449Z,57.00
2023-02-17T02:04:46.724Z,67.50
2023-02-17T02:07:35.712Z,63.33
2023-02-17T02:10:03.526Z,70.97
2023-02-17T02:12:34.750Z,72.90
2023-02-17T02:15:14.306Z,67.50
2023-02-17T02:18:07.727Z,66.57
2023-02-17T02:20:45.119Z,66.13
2023-02-17T02:23:18.190Z,65.27
2023-02-17T02:26:01.784Z,68.53
2023-02-17T02:29:03.442Z,63.70
2023-02-17T02:32:08.068Z,67.13
2023-02-17T02:35:00.305Z,72.43
2023-02-17T02:37:34.329Z,66.43
2023-02-17T02:40:05.720Z,68.83
2023-02-17T02:42:34.450Z,57.97
2023-02-17T02:45:01.709Z,62.00
2023-02-17T02:47:47.594Z,63.23
2023-02-17T02:50:25.948Z,64.67
2023-02-17T02:53:31.550Z,70.73
2023-02-17T02:56:06.616Z,66.57
2023-02-17T02:58:48.865Z,57.97
2023-02-17T03:01:43.909Z,71.77
2023-02-17T03:04:36.683Z,58.63
2023-02-17T03:07:11.502Z,71.20
2023-02-17T03:09:39.252Z,60.97
2023-02-17T03:12:07.187Z,60.77
2023-02-17T03:14:38.344Z,66.57
2023-02-17T03:17:06.110Z,58.97
2023-02-17T03:19:33.128Z,67.03
2023-02-17T03:22:29.657Z,60.73
2023-02-17T03:24:56.636Z,61.70
2023-02-17T03:27:23.816Z,64.47
2023-02-17T03:29:50.772Z,60.70
2023-02-17T03:32:18.168Z,63.87
2023-02-17T03:34:45.128Z,63.60
2023-02-17T03:37:12.374Z,65.33
2023-02-17T03:39:39.314Z,62.57
2023-02-17T03:42:06.679Z,64.93
2023-02-17T03:44:33.745Z,66.13
2023-02-17T03:47:01.046Z,68.90
2023-02-17T03:49:28.057Z,70.70
2023-02-17T03:51:55.345Z,65.80
2023-02-17T03:54:22.292Z,66.87
2023-02-17T03:56:49.494Z,65.33
2023-02-17T03:59:16.551Z,60.77
2023-02-17T04:01:44.077Z,58.83
2023-02-17T04:04:11.080Z,64.50
2023-02-17T04:06:38.350Z,66.63
2023-02-17T04:09:05.316Z,60.07
2023-02-17T04:11:32.563Z,64.07
2023-02-17T04:13:59.528Z,59.70
2023-02-17T04:16:26.763Z,59.93
2023-02-17T04:18:53.711Z,63.60
2023-02-17T04:21:20.958Z,72.50
2023-02-17T04:23:47.945Z,69.03
2023-02-17T04:26:15.200Z,69.43
2023-02-17T04:28:43.015Z,64.70
2023-02-17T04:31:10.537Z,70.27
2023-02-17T04:33:38.065Z,66.70
2023-02-17T04:36:05.963Z,74.10
2023-02-17T04:38:33.468Z,62.87
2023-02-17T04:41:01.502Z,70.03
2023-02-17T04:43:29.484Z,59.83
2023-02-17T04:45:57.511Z,68.03
2023-02-17T04:48:25.804Z,70.67
2023-02-17T04:50:53.426Z,72.90
2023-02-17T04:53:20.675Z,72.13
2023-02-17T04:55:52.474Z,63.43
2023-02-17T04:58:19.676Z,56.00
2023-02-17T05:00:48.792Z,70.10
2023-02-17T05:03:16.571Z,63.67
2023-02-17T05:05:44.020Z,69.17
2023-02-17T05:08:10.959Z,67.07
2023-02-17T05:10:38.220Z,69.73
2023-02-17T05:13:05.186Z,71.70
2023-02-17T05:15:34.751Z,82.07
2023-02-17T05:18:02.506Z,70.00
2023-02-17T05:20:29.828Z,77.53
2023-02-17T05:22:56.894Z,73.00
2023-02-17T05:25:24.095Z,73.23
2023-02-17T05:27:51.019Z,74.77
2023-02-17T05:30:20.102Z,70.90
2023-02-17T05:32:47.156Z,76.87
2023-02-17T05:35:14.467Z,86.60
2023-02-17T05:37:41.781Z,78.10
2023-02-17T05:40:09.437Z,69.43
2023-02-17T05:42:36.445Z,68.53
2023-02-17T05:45:04.633Z,67.37
2023-02-17T05:47:31.596Z,74.77
2023-02-17T05:49:58.857Z,67.60
2023-02-17T05:52:25.800Z,74.60
2023-02-17T05:54:53.160Z,72.43
2023-02-17T05:57:20.130Z,81.13
2023-02-17T05:59:47.368Z,71.63
2023-02-17T06:02:14.318Z,71.50
2023-02-17T06:04:41.695Z,78.50
2023-02-17T06:07:08.710Z,70.20
2023-02-17T06:09:35.909Z,66.67
2023-02-17T06:12:03.001Z,72.50
2023-02-17T06:14:30.407Z,70.47
2023-02-17T06:16:58.225Z,74.30
2023-02-17T06:19:27.085Z,79.83
2023-02-17T06:21:54.230Z,76.00
2023-02-17T06:24:21.489Z,72.00
2023-02-17T06:26:48.409Z,73.63
2023-02-17T06:29:15.641Z,67.43
2023-02-17T06:31:42.740Z,68.70
2023-02-17T06:34:10.085Z,77.77
2023-02-17T06:36:37.099Z,72.93
2023-02-17T06:39:04.353Z,76.50
2023-02-17T06:41:31.353Z,70.60
2023-02-17T06:43:58.597Z,67.50
2023-02-17T06:46:25.588Z,70.37
2023-02-17T06:48:52.846Z,71.07
2023-02-17T06:51:19.800Z,73.47
2023-02-17T06:53:47.018Z,66.53
2023-02-17T06:56:13.964Z,72.50
2023-02-17T06:58:41.174Z,68.23
2023-02-17T07:01:19.148Z,70.37
2023-02-17T07:03:47.178Z,61.70
2023-02-17T07:06:14.799Z,66.80
2023-02-17T07:08:42.051Z,62.33
2023-02-17T07:11:11.009Z,61.90
2023-02-17T07:13:38.547Z,55.20
2023-02-17T07:16:06.157Z,70.73
2023-02-17T07:18:33.949Z,60.70
2023-02-17T07:21:00.956Z,58.40
2023-02-17T07:23:28.197Z,61.87
2023-02-17T07:25:55.200Z,68.47
2023-02-17T07:28:22.470Z,64.20
2023-02-17T07:30:49.941Z,62.33
2023-02-17T07:33:17.252Z,56.50
2023-02-17T07:35:44.895Z,63.67
2023-02-17T07:38:12.877Z,54.53
2023-02-17T07:40:40.371Z,63.47
2023-02-17T07:43:07.603Z,53.50
2023-02-17T07:45:34.751Z,59.90
2023-02-17T07:48:02.039Z,59.13
2023-02-17T07:50:29.031Z,57.60
2023-02-17T07:52:56.306Z,52.60
2023-02-17T07:55:24.337Z,56.20
2023-02-17T07:57:51.909Z,55.07
2023-02-17T08:00:19.176Z,58.97
2023-02-17T08:02:46.449Z,56.07
2023-02-17T08:05:13.481Z,53.67
2023-02-17T08:07:40.789Z,54.13
2023-02-17T08:10:27.090Z,60.37
2023-02-17T08:13:13.077Z,52.57
2023-02-17T08:15:41.332Z,49.20
2023-02-17T08:18:08.634Z,50.13
2023-02-17T08:20:35.627Z,55.17
2023-02-17T08:23:03.733Z,57.00
2023-02-17T08:25:35.340Z,48.77
2023-02-17T08:28:04.965Z,53.00
2023-02-17T08:30:32.116Z,50.60
2023-02-17T08:32:59.447Z,54.27
2023-02-17T08:35:28.230Z,51.90
2023-02-17T08:37:55.470Z,44.90
2023-02-17T08:40:23.031Z,49.67
2023-02-17T08:42:50.515Z,47.73
2023-02-17T08:45:17.834Z,50.33
2023-02-17T08:47:45.777Z,43.73
2023-02-17T08:50:16.502Z,49.73
2023-02-17T08:52:43.732Z,45.97
2023-02-17T08:55:11.320Z,53.00
2023-02-17T08:57:38.616Z,46.80
2023-02-17T09:00:08.635Z,44.43
2023-02-17T09:02:37.627Z,48.33
2023-02-17T09:05:06.092Z,49.90
2023-02-17T09:07:33.747Z,49.20
2023-02-17T09:10:01.098Z,44.30
2023-02-17T09:12:28.351Z,50.33
2023-02-17T09:14:55.371Z,48.57
2023-02-17T09:17:22.764Z,51.80
2023-02-17T09:19:49.821Z,47.20
2023-02-17T09:22:30.819Z,44.13
2023-02-17T09:24:58.916Z,46.17
2023-02-17T09:27:26.225Z,43.50
2023-02-17T09:29:53.161Z,42.03
2023-02-17T09:32:20.695Z,49.50
2023-02-17T09:34:53.490Z,55.60
2023-02-17T09:37:21.800Z,47.80
2023-02-17T09:39:49.515Z,51.30
2023-02-17T09:42:23.106Z,42.60
2023-02-17T09:45:01.065Z,48.23
2023-02-17T09:47:51.877Z,48.23
2023-02-17T09:50:26.172Z,50.03
2023-02-17T09:53:06.629Z,45.53
2023-02-17T09:55:43.264Z,48.10
2023-02-17T09:58:18.379Z,46.30
2023-02-17T10:00:53.307Z,50.70
2023-02-17T10:03:38.835Z,52.07
2023-02-17T10:06:50.235Z,44.13
2023-02-17T10:09:32.440Z,49.63
2023-02-17T10:12:16.274Z,49.67
2023-02-17T10:14:56.120Z,49.87
2023-02-17T10:17:34.574Z,47.30
2023-02-17T10:20:10.900Z,47.33
2023-02-17T10:22:39.979Z,47.37
2023-02-17T10:25:19.864Z,48.23
2023-02-17T10:27:55.943Z,45.73
2023-02-17T10:30:30.967Z,46.73
2023-02-17T10:33:25.969Z,47.97
2023-02-17T10:36:03.312Z,50.13
2023-02-17T10:38:57.315Z,56.27
2023-02-17T10:41:31.348Z,48.73
2023-02-17T10:43:59.548Z,49.27
2023-02-17T10:46:31.437Z,53.77
2023-02-17T10:48:59.858Z,48.87
2023-02-17T10:51:29.632Z,53.90
2023-02-17T10:54:05.822Z,57.10
2023-02-17T10:56:39.624Z,54.13
2023-02-17T10:59:38.844Z,55.53
2023-02-17T11:02:24.822Z,49.47
2023-02-17T11:04:56.731Z,51.43
2023-02-17T11:07:33.772Z,55.40
2023-02-17T11:10:04.244Z,50.60
2023-02-17T11:12:40.418Z,54.23
2023-02-17T11:15:18.316Z,55.30
2023-02-17T11:17:46.603Z,50.00
2023-02-17T11:20:13.731Z,50.83
2023-02-17T11:23:03.116Z,52.70
2023-02-17T11:25:32.539Z,51.13
2023-02-17T11:28:05.920Z,54.10
2023-02-17T11:30:35.059Z,53.63
2023-02-17T11:33:20.105Z,52.13
2023-02-17T11:35:55.539Z,57.30
2023-02-17T11:38:28.562Z,50.40
2023-02-17T11:41:07.539Z,57.27
2023-02-17T11:43:36.117Z,57.40
2023-02-17T11:46:38.741Z,52.97
2023-02-17T11:49:31.062Z,56.10
2023-02-17T11:52:16.614Z,56.50
2023-02-17T11:54:53.040Z,53.23
2023-02-17T11:57:22.866Z,54.30
2023-02-17T12:00:17.809Z,51.17
2023-02-17T12:02:56.915Z,50.67
2023-02-17T12:05:35.517Z,49.83
2023-02-17T12:08:10.861Z,51.10
2023-02-17T12:10:43.756Z,53.53
2023-02-17T12:13:44.008Z,49.60
2023-02-17T12:16:31.645Z,48.53
2023-02-17T12:19:31.798Z,52.00
2023-02-17T12:22:26.677Z,48.80
2023-02-17T12:25:09.066Z,52.33
2023-02-17T12:28:10.939Z,53.60
2023-02-17T12:31:02.585Z,44.13
2023-02-17T12:33:45.281Z,48.23
2023-02-17T12:36:15.520Z,48.30
2023-02-17T12:38:46.521Z,68.33
2023-02-17T12:41:25.581Z,51.27
2023-02-17T12:44:03.382Z,49.73
2023-02-17T12:46:38.459Z,44.13
2023-02-17T12:49:17.252Z,43.93
2023-02-17T12:52:04.332Z,51.00
2023-02-17T12:54:36.642Z,45.30
2023-02-17T12:57:14.121Z,47.47
2023-02-17T12:59:45.262Z,43.60
2023-02-17T13:02:14.584Z,49.00
2023-02-17T13:04:44.983Z,42.93
2023-02-17T13:07:25.478Z,41.83
2023-02-17T13:09:55.835Z,40.63
2023-02-17T13:12:22.778Z,45.37
2023-02-17T13:14:59.276Z,46.60
2023-02-17T13:17:37.171Z,41.33
2023-02-17T13:20:10.541Z,40.77
2023-02-17T13:22:39.493Z,40.77
2023-02-17T13:25:07.706Z,41.13
2023-02-17T13:27:38.041Z,43.60
2023-02-17T13:30:22.479Z,39.50
2023-02-17T13:33:05.335Z,37.90
2023-02-17T13:35:36.133Z,36.97
2023-02-17T13:38:06.192Z,39.23
2023-02-17T13:40:37.347Z,44.60
2023-02-17T13:43:18.489Z,35.20
2023-02-17T13:46:14.009Z,37.33
2023-02-17T13:48:41.020Z,35.43
2023-02-17T13:51:25.460Z,33.37
2023-02-17T13:53:52.757Z,35.73
2023-02-17T13:56:28.293Z,34.20
2023-02-17T13:59:06.491Z,36.30
2023-02-17T14:01:38.241Z,33.97
2023-02-17T14:04:27.600Z,38.67
2023-02-17T14:06:58.682Z,38.47
2023-02-17T14:09:31.195Z,38.33
2023-02-17T14:12:02.390Z,38.10
2023-02-17T14:14:36.118Z,41.33
2023-02-17T14:17:13.186Z,38.37
2023-02-17T14:19:45.488Z,45.87
2023-02-17T14:22:29.398Z,43.27
2023-02-17T14:25:01.033Z,43.63
2023-02-17T14:27:28.456Z,40.73
2023-02-17T14:29:55.508Z,37.00
2023-02-17T14:32:33.629Z,44.07
2023-02-17T14:35:26.786Z,37.27
2023-02-17T14:37:54.110Z,41.93
2023-02-17T14:40:23.897Z,38.27
2023-02-17T14:42:51.948Z,35.03
2023-02-17T14:45:19.795Z,41.17
2023-02-17T14:47:47.408Z,34.97
2023-02-17T14:50:17.522Z,39.30
2023-02-17T14:52:49.983Z,39.10
2023-02-17T14:55:34.402Z,35.27
2023-02-17T14:58:01.825Z,42.63
2023-02-17T15:00:28.894Z,37.87
2023-02-17T15:02:56.065Z,40.60
2023-02-17T15:05:23.460Z,39.13
2023-02-17T15:07:51.173Z,44.77
2023-02-17T15:10:24.835Z,41.63
2023-02-17T15:12:53.004Z,45.17
2023-02-17T15:15:20.500Z,39.77
2023-02-17T15:17:48.676Z,37.57
2023-02-17T15:20:16.681Z,45.40
2023-02-17T15:22:44.488Z,44.57
2023-02-17T15:25:11.628Z,45.07
2023-02-17T15:27:38.884Z,39.43
2023-02-17T15:30:10.828Z,39.50
2023-02-17T15:32:58.186Z,45.77
2023-02-17T15:35:45.919Z,39.33
2023-02-17T15:38:47.724Z,43.03
2023-02-17T15:41:34.962Z,45.90
2023-02-17T15:44:47.603Z,45.37
2023-02-17T15:47:19.967Z,46.43
2023-02-17T15:50:26.976Z,50.93
2023-02-17T15:53:14.141Z,45.67
2023-02-17T15:56:21.203Z,43.13
2023-02-17T15:59:09.041Z,47.23
2023-02-17T16:02:20.357Z,45.27
2023-02-17T16:05:23.889Z,47.03
2023-02-17T16:08:31.015Z,51.53
2023-02-17T16:11:40.544Z,47.10
2023-02-17T16:14:50.100Z,43.97
2023-02-17T16:17:17.397Z,44.43
2023-02-17T16:20:04.746Z,40.83
2023-02-17T16:23:06.503Z,42.00
2023-02-17T16:26:09.330Z,43.47
2023-02-17T16:28:51.469Z,34.67
2023-02-17T16:31:53.429Z,36.67
2023-02-17T16:35:15.147Z,34.53
2023-02-17T16:38:02.760Z,36.53
2023-02-17T16:40:32.250Z,34.70
2023-02-17T16:43:20.630Z,36.87
2023-02-17T16:46:30.164Z,35.30
2023-02-17T16:49:24.814Z,33.10
2023-02-17T16:52:34.574Z,30.07
2023-02-17T16:55:40.757Z,31.60
2023-02-17T16:58:19.504Z,36.63
2023-02-17T17:01:12.637Z,34.67
2023-02-17T17:03:59.814Z,33.50
2023-02-17T17:07:08.197Z,33.57
2023-02-17T17:10:14.767Z,38.60
2023-02-17T17:13:12.292Z,35.00
2023-02-17T17:15:59.478Z,32.90
2023-02-17T17:19:26.301Z,38.07
2023-02-17T17:22:49.403Z,41.77
2023-02-17T17:25:59.634Z,40.00
2023-02-17T17:28:26.576Z,35.47
2023-02-17T17:31:13.755Z,38.50
2023-02-17T17:33:41.045Z,34.23
2023-02-17T17:36:41.741Z,37.10
2023-02-17T17:39:48.665Z,39.17
2023-02-17T17:43:10.441Z,38.63
2023-02-17T17:46:17.599Z,38.70
2023-02-17T17:49:06.028Z,35.37
2023-02-17T17:51:33.982Z,36.47
2023-02-17T17:54:44.124Z,32.97
2023-02-17T17:57:45.972Z,35.30
2023-02-17T18:00:47.816Z,32.00
2023-02-17T18:03:15.077Z,32.00
2023-02-17T18:06:22.267Z,32.87
2023-02-17T18:09:31.949Z,33.73
2023-02-17T18:12:20.803Z,30.27
2023-02-17T18:15:04.370Z,22.83
2023-02-17T18:18:06.410Z,25.13
2023-02-17T18:21:08.162Z,23.27
2023-02-17T18:24:09.971Z,25.47
2023-02-17T18:27:11.736Z,24.00
2023-02-17T18:30:16.810Z,21.43
2023-02-17T18:32:44.644Z,22.53
2023-02-17T18:35:51.773Z,24.93
2023-02-17T18:38:53.580Z,23.83
2023-02-17T18:42:15.386Z,20.23
2023-02-17T18:58:22.760Z,25.80
2023-02-17T19:00:50.362Z,22.60
2023-02-17T19:03:17.923Z,24.47
2023-02-17T19:05:45.583Z,20.50
2023-02-17T19:08:13.521Z,21.97
2023-02-17T19:10:41.444Z,23.73
2023-02-17T19:13:08.885Z,23.60
2023-02-17T19:15:38.183Z,24.53
2023-02-17T19:18:07.317Z,23.10
2023-02-17T19:20:35.185Z,22.93
2023-02-17T19:23:03.025Z,20.03
2023-02-17T19:25:30.981Z,23.03
2023-02-17T19:27:58.341Z,23.60
2023-02-17T19:30:27.185Z,23.93
2023-02-17T19:32:54.507Z,23.70
2023-02-17T19:35:22.985Z,22.47
2023-02-17T19:37:50.542Z,26.30
2023-02-17T19:40:18.271Z,25.43
2023-02-17T19:42:45.555Z,28.73
2023-02-17T19:45:13.113Z,29.50
2023-02-17T19:47:40.854Z,27.50
2023-02-17T19:50:08.853Z,28.63
2023-02-17T19:52:37.856Z,29.33
2023-02-17T19:55:06.146Z,33.07
2023-02-17T19:57:33.375Z,31.03
2023-02-17T20:00:01.003Z,32.27
2023-02-17T20:02:30.618Z,29.27
2023-02-17T20:05:00.664Z,31.80
2023-02-17T20:07:29.517Z,33.73
2023-02-17T20:09:57.444Z,34.57
2023-02-17T20:12:25.462Z,35.80
2023-02-17T20:14:55.074Z,35.90
2023-02-17T20:17:22.511Z,32.57
2023-02-17T20:19:51.837Z,35.87
2023-02-17T20:22:19.093Z,34.90
2023-02-17T20:24:48.157Z,32.97
2023-02-17T20:27:15.816Z,31.70
2023-02-17T20:29:45.988Z,30.67
2023-02-17T20:32:14.735Z,29.03
2023-02-17T20:34:43.410Z,27.73
2023-02-17T20:37:11.890Z,29.73
2023-02-17T20:39:41.815Z,26.73
2023-02-17T20:42:10.196Z,29.20
2023-02-17T20:44:38.913Z,27.37
2023-02-17T20:47:06.773Z,22.30
2023-02-17T20:49:36.554Z,23.60
2023-02-17T20:52:06.392Z,22.27
2023-02-17T20:54:34.898Z,22.93
2023-02-17T20:57:02.337Z,21.27
2023-02-17T20:59:30.887Z,20.73
2023-02-17T21:01:59.692Z,21.00
2023-02-17T21:04:27.222Z,19.43
2023-02-17T21:06:54.386Z,20.63
2023-02-17T21:09:23.228Z,18.27
2023-02-17T21:11:51.779Z,19.27
2023-02-17T21:14:19.413Z,20.40
2023-02-17T21:16:46.789Z,17.77
2023-02-17T21:19:14.542Z,18.70
2023-02-17T21:21:43.139Z,17.47
2023-02-17T21:24:11.616Z,20.40
2023-02-17T21:26:39.213Z,19.90
2023-02-17T21:29:07.176Z,20.33
2023-02-17T21:31:37.218Z,16.20
2023-02-17T21:34:05.209Z,16.77
2023-02-17T21:36:33.520Z,15.00
2023-02-17T21:39:01.292Z,14.90
2023-02-17T21:41:30.466Z,14.33
2023-02-17T21:44:17.643Z,15.67
2023-02-17T21:46:46.607Z,15.63
2023-02-17T21:49:14.445Z,15.00
2023-02-17T21:51:42.504Z,12.57
2023-02-17T21:54:14.576Z,14.70
2023-02-17T21:56:42.064Z,12.37
2023-02-17T21:59:10.117Z,12.00
2023-02-17T22:01:38.521Z,11.40
2023-02-17T22:04:06.130Z,11.43
2023-02-17T22:06:37.153Z,11.07
2023-02-17T22:09:07.118Z,10.20
2023-02-17T22:11:37.266Z,9.93
2023-02-17T22:14:07.738Z,9.90
2023-02-17T22:16:38.442Z,8.70
2023-02-17T22:19:10.848Z,10.63
2023-02-17T22:21:40.766Z,10.53
2023-02-17T22:24:08.509Z,9.70
2023-02-17T22:26:36.392Z,8.47
2023-02-17T22:29:04.697Z,9.50
2023-02-17T22:31:33.321Z,8.07
2023-02-17T22:34:04.036Z,8.20
2023-02-17T22:36:34.688Z,6.80
2023-02-17T22:39:04.280Z,8.20
2023-02-17T22:41:33.227Z,6.53
2023-02-17T22:44:01.825Z,6.40
2023-02-17T22:46:31.913Z,10.40
2023-02-17T22:49:00.180Z,6.00
2023-02-17T22:51:35.500Z,6.17
2023-02-17T22:54:04.072Z,7.10
2023-02-17T22:56:31.918Z,6.23
2023-02-17T22:59:06.024Z,6.83
2023-02-17T23:01:36.053Z,7.50
2023-02-17T23:04:06.876Z,7.00
2023-02-17T23:06:37.418Z,6.67
2023-02-17T23:09:06.893Z,6.63
2023-02-17T23:11:52.881Z,5.97
2023-02-17T23:14:33.643Z,6.67
2023-02-17T23:17:04.787Z,7.43
2023-02-17T23:19:33.518Z,7.17
2023-02-17T23:22:04.487Z,6.77
2023-02-17T23:24:32.457Z,9.07
2023-02-17T23:27:01.170Z,5.90
2023-02-17T23:29:30.853Z,7.03
2023-02-17T23:31:58.428Z,5.73
2023-02-17T23:34:27.023Z,6.20
2023-02-17T23:36:55.212Z,6.13
2023-02-17T23:39:23.112Z,5.20
2023-02-17T23:41:50.338Z,7.63
2023-02-17T23:44:18.524Z,9.27
2023-02-17T23:46:45.960Z,4.53
2023-02-17T23:49:17.679Z,5.83
2023-02-17T23:51:46.980Z,5.70
2023-02-17T23:54:16.381Z,10.97
2023-02-17T23:56:45.010Z,6.37
2023-02-17T23:59:12.739Z,7.53
